createdAt,value
2023-01-19T00:04:33.129Z,1.30
2023-01-19T00:09:40.821Z,1.30
2023-01-19T00:14:49.299Z,1.40
2023-01-19T00:19:59.221Z,1.10
2023-01-19T00:25:06.529Z,1.10
2023-01-19T00:30:15.275Z,1.00
2023-01-19T00:35:22.453Z,1.10
2023-01-19T00:40:29.660Z,1.10
2023-01-19T00:45:37.926Z,1.10
2023-01-19T00:50:46.372Z,1.00
2023-01-19T00:55:53.917Z,1.00
2023-01-19T01:01:02.728Z,0.90
2023-01-19T01:06:10.473Z,0.80
2023-01-19T01:11:17.623Z,0.70
2023-01-19T01:16:26.025Z,0.50
2023-01-19T01:21:34.913Z,0.40
2023-01-19T01:26:41.834Z,0.30
2023-01-19T01:31:48.964Z,0.40
2023-01-19T01:36:56.533Z,0.30
2023-01-19T01:42:03.667Z,0.40
2023-01-19T01:47:11.228Z,0.50
2023-01-19T01:52:19.724Z,0.40
2023-01-19T01:57:28.192Z,0.30
2023-01-19T02:02:55.841Z,0.30
2023-01-19T02:08:39.833Z,0.30
2023-01-19T02:13:48.729Z,0.30
2023-01-19T02:18:56.513Z,0.20
2023-01-19T02:24:03.593Z,0.30
2023-01-19T02:29:15.144Z,0.20
2023-01-19T02:34:24.616Z,0.30
2023-01-19T02:39:51.695Z,0.30
2023-01-19T02:45:00.192Z,0.20
2023-01-19T02:50:08.151Z,0.30
2023-01-19T02:55:21.706Z,0.30
2023-01-19T03:00:48.376Z,0.30
2023-01-19T03:06:23.077Z,0.30
2023-01-19T03:11:35.372Z,0.30
2023-01-19T03:16:47.800Z,0.40
2023-01-19T03:22:08.474Z,0.40
2023-01-19T03:27:28.298Z,0.40
2023-01-19T03:32:40.263Z,0.10
2023-01-19T03:37:50.755Z,0.10
2023-01-19T03:42:59.196Z,0.00
2023-01-19T03:48:07.234Z,-0.20
2023-01-19T03:53:18.587Z,-0.30
2023-01-19T03:58:25.924Z,-0.10
2023-01-19T04:03:33.777Z,-0.20
2023-01-19T04:08:42.007Z,-0.10
2023-01-19T04:13:48.975Z,-0.30
2023-01-19T04:18:55.906Z,-0.20
2023-01-19T04:24:03.270Z,-0.20
2023-01-19T04:29:11.052Z,-0.30
2023-01-19T04:34:18.145Z,-0.20
2023-01-19T04:39:26.274Z,-0.20
2023-01-19T04:44:33.432Z,-0.40
2023-01-19T04:49:40.736Z,-0.50
2023-01-19T04:54:47.837Z,-0.50
2023-01-19T04:59:54.465Z,-0.50
2023-01-19T05:05:02.541Z,-0.40
2023-01-19T05:10:10.851Z,-0.40
2023-01-19T05:15:18.213Z,-0.40
2023-01-19T05:20:26.326Z,-0.40
2023-01-19T05:25:33.980Z,-0.50
2023-01-19T05:30:41.496Z,-0.40
2023-01-19T05:35:50.689Z,-0.90
2023-01-19T05:41:01.744Z,-0.80
2023-01-19T05:46:09.744Z,-0.80
2023-01-19T05:51:17.287Z,-1.30
2023-01-19T05:56:26.442Z,-1.20
2023-01-19T06:01:37.512Z,-1.20
2023-01-19T06:06:45.479Z,-1.30
2023-01-19T06:11:54.521Z,-1.50
2023-01-19T06:17:01.857Z,-1.50
2023-01-19T06:22:08.600Z,-1.40
2023-01-19T06:27:16.340Z,-1.40
2023-01-19T06:32:24.927Z,-1.30
2023-01-19T06:37:32.245Z,-1.30
2023-01-19T06:42:41.150Z,-1.30
2023-01-19T06:47:50.194Z,-1.50
2023-01-19T06:52:58.412Z,-1.80
2023-01-19T06:58:06.783Z,-1.70
2023-01-19T07:03:19.011Z,-2.10
2023-01-19T07:08:28.397Z,-2.10
2023-01-19T07:13:37.099Z,-1.80
2023-01-19T07:18:45.524Z,-1.80
2023-01-19T07:23:55.031Z,-2.10
2023-01-19T07:29:02.016Z,-2.60
2023-01-19T07:34:11.160Z,-2.50
2023-01-19T07:39:19.048Z,-2.30
2023-01-19T07:44:26.100Z,-2.30
2023-01-19T07:49:34.403Z,-2.40
2023-01-19T07:54:41.887Z,-1.90
2023-01-19T07:59:52.157Z,-2.00
2023-01-19T08:04:59.288Z,-1.60
2023-01-19T08:10:07.203Z,-1.10
2023-01-19T08:15:14.903Z,-1.20
2023-01-19T08:20:23.567Z,-0.90
2023-01-19T08:25:37.374Z,-0.80
2023-01-19T08:30:45.372Z,-0.50
2023-01-19T08:35:58.222Z,-0.10
2023-01-19T08:41:05.273Z,0.40
2023-01-19T08:46:16.258Z,0.60
2023-01-19T08:51:24.551Z,0.50
2023-01-19T08:56:31.989Z,0.70
2023-01-19T09:01:40.138Z,0.90
2023-01-19T09:06:47.729Z,0.80
2023-01-19T09:11:56.668Z,0.80
2023-01-19T09:17:04.615Z,1.00
2023-01-19T09:22:12.221Z,1.30
2023-01-19T09:27:19.988Z,1.70
2023-01-19T09:32:26.959Z,2.00
2023-01-19T09:37:34.109Z,2.30
2023-01-19T09:43:19.932Z,2.60
2023-01-19T09:48:34.593Z,2.70
2023-01-19T09:54:11.993Z,3.30
2023-01-19T09:59:32.870Z,3.40
2023-01-19T10:04:45.953Z,3.50
2023-01-19T10:10:21.819Z,3.40
2023-01-19T10:15:48.566Z,3.70
2023-01-19T10:21:22.909Z,3.40
2023-01-19T10:26:44.424Z,3.70
2023-01-19T10:31:56.492Z,3.70
2023-01-19T10:37:45.959Z,3.10
2023-01-19T10:42:53.288Z,3.40
2023-01-19T10:48:04.518Z,4.20
2023-01-19T10:53:23.286Z,4.00
2023-01-19T10:58:32.982Z,2.90
2023-01-19T11:03:40.567Z,3.30
2023-01-19T11:08:51.507Z,3.10
2023-01-19T11:14:16.247Z,2.90
2023-01-19T11:19:40.270Z,3.20
2023-01-19T11:24:47.506Z,3.60
2023-01-19T11:30:23.811Z,2.90
2023-01-19T11:35:53.995Z,3.00
2023-01-19T11:41:33.015Z,3.50
2023-01-19T11:46:45.320Z,3.80
2023-01-19T11:52:15.918Z,3.70
2023-01-19T11:57:24.424Z,3.80
2023-01-19T12:02:37.849Z,3.70
2023-01-19T12:07:50.529Z,3.60
2023-01-19T12:12:59.407Z,3.50
2023-01-19T12:18:11.144Z,3.30
2023-01-19T12:23:48.006Z,3.40
2023-01-19T12:28:59.977Z,3.20
2023-01-19T12:34:33.767Z,3.20
2023-01-19T12:39:47.641Z,3.30
2023-01-19T12:45:07.131Z,3.00
2023-01-19T12:50:20.798Z,2.80
2023-01-19T12:55:41.273Z,2.60
2023-01-19T13:00:51.835Z,2.60
2023-01-19T13:06:00.507Z,2.60
2023-01-19T13:11:18.178Z,2.80
2023-01-19T13:16:31.019Z,2.60
2023-01-19T13:21:45.071Z,2.70
2023-01-19T13:26:57.656Z,2.80
2023-01-19T13:32:19.118Z,2.70
2023-01-19T13:37:39.193Z,2.70
2023-01-19T13:42:48.110Z,2.70
2023-01-19T13:47:57.996Z,2.70
2023-01-19T13:53:07.569Z,2.80
2023-01-19T13:58:26.623Z,2.80
2023-01-19T14:03:36.209Z,2.80
2023-01-19T14:08:44.039Z,2.70
2023-01-19T14:13:51.183Z,2.60
2023-01-19T14:19:06.180Z,2.60
2023-01-19T14:24:21.227Z,2.70
2023-01-19T14:29:38.536Z,2.50
2023-01-19T14:34:50.569Z,2.20
2023-01-19T14:40:15.122Z,1.50
2023-01-19T14:45:40.122Z,1.60
2023-01-19T14:51:02.707Z,1.60
2023-01-19T14:56:07.906Z,1.50
2023-01-19T15:01:16.273Z,1.30
2023-01-19T15:06:24.233Z,1.10
2023-01-19T15:11:36.294Z,0.80
2023-01-19T15:16:45.188Z,0.80
2023-01-19T15:21:52.483Z,0.50
2023-01-19T15:27:01.829Z,0.40
2023-01-19T15:32:15.760Z,0.20
2023-01-19T15:37:25.319Z,0.20
2023-01-19T15:42:34.749Z,0.00
2023-01-19T15:47:43.417Z,-0.10
2023-01-19T15:52:52.277Z,-0.30
2023-01-19T15:58:01.634Z,-0.30
2023-01-19T16:03:11.682Z,-0.40
2023-01-19T16:08:20.614Z,-0.50
2023-01-19T16:13:31.964Z,-0.50
2023-01-19T16:18:40.429Z,-0.60
2023-01-19T16:23:48.491Z,-0.60
2023-01-19T16:29:00.797Z,-0.60
2023-01-19T16:34:09.275Z,-0.70
2023-01-19T16:39:17.711Z,-0.80
2023-01-19T16:44:25.203Z,-1.00
2023-01-19T16:49:33.674Z,-1.10
2023-01-19T16:54:43.824Z,-1.10
2023-01-19T16:59:52.603Z,-1.20
2023-01-19T17:05:00.473Z,-1.20
2023-01-19T17:10:09.881Z,-1.20
2023-01-19T17:15:17.296Z,-1.40
2023-01-19T17:20:24.891Z,-1.50
2023-01-19T17:25:32.840Z,-1.50
2023-01-19T17:30:41.204Z,-1.60
2023-01-19T17:35:49.661Z,-1.70
2023-01-19T17:41:19.654Z,-1.90
2023-01-19T17:46:32.213Z,-1.70
2023-01-19T17:51:40.709Z,-1.60
2023-01-19T17:56:49.801Z,-1.60
2023-01-19T18:01:56.897Z,-1.80
2023-01-19T18:07:07.050Z,-1.80
2023-01-19T18:12:18.271Z,-1.80
2023-01-19T18:17:31.499Z,-1.80
2023-01-19T18:22:42.196Z,-2.10
2023-01-19T18:27:55.473Z,-2.10
2023-01-19T18:33:07.477Z,-2.20
2023-01-19T18:38:17.958Z,-2.10
2023-01-19T18:43:26.651Z,-1.90
2023-01-19T18:48:39.766Z,-2.00
2023-01-19T18:53:48.660Z,-1.70
2023-01-19T18:59:50.028Z,-1.60
2023-01-19T19:04:58.529Z,-1.80
2023-01-19T19:10:07.102Z,-1.70
2023-01-19T19:15:44.615Z,-2.10
2023-01-19T19:20:59.127Z,-2.00
2023-01-19T19:26:13.266Z,-2.00
2023-01-19T19:31:26.441Z,-2.30
2023-01-19T19:36:34.662Z,-2.00
2023-01-19T19:41:43.325Z,-2.30
2023-01-19T19:46:50.290Z,-2.60
2023-01-19T19:51:58.544Z,-2.30
2023-01-19T19:57:05.709Z,-2.70
2023-01-19T20:02:14.298Z,-2.50
2023-01-19T20:07:27.323Z,-2.30
2023-01-19T20:12:34.948Z,-2.30
2023-01-19T20:17:45.011Z,-2.30
2023-01-19T20:22:54.034Z,-2.60
2023-01-19T20:28:03.420Z,-2.40
2023-01-19T20:33:15.600Z,-2.30
2023-01-19T20:38:24.770Z,-2.30
2023-01-19T20:43:33.130Z,-2.50
2023-01-19T20:48:43.383Z,-2.30
2023-01-19T20:53:51.011Z,-2.30
2023-01-19T20:59:02.305Z,-2.50
2023-01-19T21:04:10.746Z,-2.30
2023-01-19T21:09:19.120Z,-2.20
2023-01-19T21:14:29.083Z,-2.10
2023-01-19T21:19:40.263Z,-2.30
2023-01-19T21:24:48.565Z,-2.70
2023-01-19T21:29:56.553Z,-2.70
2023-01-19T21:35:06.163Z,-2.80
2023-01-19T21:40:17.032Z,-2.80
2023-01-19T21:45:25.866Z,-2.60
2023-01-19T21:50:34.496Z,-2.60
2023-01-19T21:55:45.968Z,-2.40
2023-01-19T22:01:01.969Z,-2.60
2023-01-19T22:06:14.694Z,-2.50
2023-01-19T22:11:23.780Z,-2.30
2023-01-19T22:16:31.948Z,-2.30
2023-01-19T22:21:38.879Z,-2.40
2023-01-19T22:26:46.060Z,-2.60
2023-01-19T22:31:54.741Z,-2.40
2023-01-19T22:37:04.455Z,-2.50
2023-01-19T22:42:12.419Z,-2.70
2023-01-19T22:47:19.579Z,-2.40
2023-01-19T22:52:26.821Z,-2.50
2023-01-19T22:57:37.749Z,-2.60
2023-01-19T23:02:44.633Z,-2.50
2023-01-19T23:07:54.412Z,-2.60
2023-01-19T23:13:03.973Z,-3.10
2023-01-19T23:18:12.339Z,-3.40
2023-01-19T23:23:19.376Z,-3.20
2023-01-19T23:28:28.630Z,-4.10
2023-01-19T23:33:40.049Z,-3.90
2023-01-19T23:39:00.504Z,-3.60
2023-01-19T23:44:07.932Z,-3.40
2023-01-19T23:49:15.949Z,-3.20
2023-01-19T23:54:23.940Z,-3.30
2023-01-19T23:59:33.945Z,-3.20
